createdAt,value
2018-09-06T00:00:55.511Z,0.00
2018-09-06T00:01:55.494Z,0.00
2018-09-06T00:02:55.449Z,0.00
2018-09-06T00:03:55.438Z,0.00
2018-09-06T00:04:55.525Z,0.00
2018-09-06T00:05:55.424Z,0.00
2018-09-06T00:06:55.434Z,0.00
2018-09-06T00:07:55.404Z,0.00
2018-09-06T00:08:55.381Z,0.00
2018-09-06T00:09:55.376Z,0.00
2018-09-06T00:10:55.361Z,0.00
2018-09-06T00:11:55.413Z,0.00
2018-09-06T00:12:55.346Z,0.00
2018-09-06T00:13:55.327Z,0.00
2018-09-06T00:14:55.315Z,0.00
2018-09-06T00:15:55.337Z,0.00
2018-09-06T00:16:55.302Z,0.00
2018-09-06T00:17:55.291Z,0.00
2018-09-06T00:18:55.314Z,0.00
2018-09-06T00:19:55.266Z,0.00
2018-09-06T00:20:55.294Z,0.00
2018-09-06T00:21:55.245Z,0.00
2018-09-06T00:22:55.237Z,0.00
2018-09-06T00:23:55.226Z,0.00
2018-09-06T00:24:55.259Z,0.00
2018-09-06T00:25:55.202Z,0.00
2018-09-06T00:26:55.185Z,0.00
2018-09-06T00:27:55.254Z,0.00
2018-09-06T00:28:55.162Z,0.00
2018-09-06T00:29:55.164Z,0.00
2018-09-06T00:30:55.144Z,0.00
2018-09-06T00:31:55.132Z,0.00
2018-09-06T00:32:55.156Z,0.00
2018-09-06T00:33:55.116Z,0.00
2018-09-06T00:34:55.119Z,0.00
2018-09-06T00:35:55.090Z,0.00
2018-09-06T00:36:55.110Z,0.00
2018-09-06T00:37:55.077Z,0.00
2018-09-06T00:38:55.059Z,0.00
2018-09-06T00:39:55.044Z,0.00
2018-09-06T00:40:55.032Z,0.00
2018-09-06T00:41:55.056Z,0.00
2018-09-06T00:42:55.015Z,0.00
2018-09-06T00:43:54.999Z,0.00
2018-09-06T00:44:54.988Z,0.00
2018-09-06T00:45:55.007Z,0.00
2018-09-06T00:46:54.971Z,0.00
2018-09-06T00:47:54.967Z,0.00
2018-09-06T00:48:54.944Z,0.00
2018-09-06T00:49:54.936Z,0.00
2018-09-06T00:50:54.959Z,0.00
2018-09-06T00:51:54.916Z,0.00
2018-09-06T00:52:54.906Z,0.00
2018-09-06T00:53:54.930Z,0.00
2018-09-06T00:54:54.916Z,0.00
2018-09-06T00:55:54.863Z,0.00
2018-09-06T00:56:54.855Z,0.00
2018-09-06T00:57:54.843Z,0.00
2018-09-06T00:58:54.863Z,0.00
2018-09-06T00:59:54.822Z,0.00
2018-09-06T01:00:54.815Z,0.00
2018-09-06T01:01:54.809Z,0.00
2018-09-06T01:02:54.788Z,0.00
2018-09-06T01:03:54.807Z,0.00
2018-09-06T01:04:54.768Z,0.00
2018-09-06T01:05:54.757Z,0.00
2018-09-06T01:06:54.755Z,0.00
2018-09-06T01:07:54.768Z,0.00
2018-09-06T01:08:54.756Z,0.00
2018-09-06T01:09:54.735Z,0.00
2018-09-06T01:10:54.707Z,0.00
2018-09-06T01:11:54.690Z,0.00
2018-09-06T01:12:54.694Z,0.00
2018-09-06T01:13:54.699Z,0.00
2018-09-06T01:14:54.689Z,0.00
2018-09-06T01:15:54.655Z,0.00
2018-09-06T01:16:54.639Z,0.00
2018-09-06T01:17:54.626Z,0.00
2018-09-06T01:18:54.652Z,0.00
2018-09-06T01:19:54.604Z,0.00
2018-09-06T01:20:54.599Z,0.00
2018-09-06T01:21:54.583Z,0.00
2018-09-06T01:22:54.575Z,0.00
2018-09-06T01:23:54.609Z,0.00
2018-09-06T01:24:54.553Z,0.00
2018-09-06T01:25:54.561Z,0.00
2018-09-06T01:26:54.537Z,0.00
2018-09-06T01:27:54.518Z,0.00
2018-09-06T01:28:54.565Z,0.00
2018-09-06T01:29:54.496Z,0.00
2018-09-06T01:30:54.524Z,0.00
2018-09-06T01:31:54.480Z,0.00
2018-09-06T01:32:54.477Z,0.00
2018-09-06T01:33:54.489Z,0.00
2018-09-06T01:34:54.481Z,0.00
2018-09-06T01:35:54.461Z,0.00
2018-09-06T01:36:54.447Z,0.00
2018-09-06T01:37:54.423Z,0.00
2018-09-06T01:38:54.399Z,0.00
2018-09-06T01:39:54.417Z,0.00
2018-09-06T01:40:54.420Z,0.00
2018-09-06T01:41:54.368Z,0.00
2018-09-06T01:42:54.360Z,0.00
2018-09-06T01:43:54.365Z,0.00
2018-09-06T01:44:54.897Z,0.00
2018-09-06T01:45:54.338Z,0.00
2018-09-06T01:46:54.316Z,0.00
2018-09-06T01:47:54.337Z,0.00
2018-09-06T01:48:54.291Z,0.00
2018-09-06T01:49:54.321Z,0.00
2018-09-06T01:50:54.263Z,0.00
2018-09-06T01:51:54.254Z,0.00
2018-09-06T01:52:54.244Z,0.00
2018-09-06T01:53:54.270Z,0.00
2018-09-06T01:54:54.243Z,0.00
2018-09-06T01:55:54.244Z,0.00
2018-09-06T01:56:54.202Z,0.00
2018-09-06T01:57:54.189Z,0.00
2018-09-06T01:58:54.183Z,0.00
2018-09-06T01:59:54.167Z,0.00
2018-09-06T02:00:54.282Z,0.00
2018-09-06T02:01:54.148Z,0.00
2018-09-06T02:02:54.938Z,0.00
2018-09-06T02:03:54.144Z,0.00
2018-09-06T02:04:54.110Z,0.00
2018-09-06T02:05:54.133Z,0.00
2018-09-06T02:06:54.110Z,0.00
2018-09-06T02:07:54.106Z,0.00
2018-09-06T02:08:54.068Z,0.00
2018-09-06T02:09:54.058Z,0.00
2018-09-06T02:10:54.050Z,0.00
2018-09-06T02:11:54.039Z,0.00
2018-09-06T02:12:54.065Z,0.00
2018-09-06T02:13:54.019Z,0.00
2018-09-06T02:14:54.035Z,0.00
2018-09-06T02:15:53.995Z,0.00
2018-09-06T02:16:53.979Z,0.00
2018-09-06T02:17:53.976Z,0.00
2018-09-06T02:18:53.992Z,0.00
2018-09-06T02:19:53.943Z,0.00
2018-09-06T02:20:53.945Z,0.00
2018-09-06T02:21:53.930Z,0.00
2018-09-06T02:22:53.946Z,0.00
2018-09-06T02:23:53.927Z,0.00
2018-09-06T02:24:53.979Z,0.00
2018-09-06T02:25:53.886Z,0.00
2018-09-06T02:26:53.869Z,0.00
2018-09-06T02:27:53.869Z,0.00
2018-09-06T02:28:53.855Z,0.00
2018-09-06T02:29:53.875Z,0.00
2018-09-06T02:30:53.832Z,0.00
2018-09-06T02:31:53.819Z,0.00
2018-09-06T02:32:53.814Z,0.00
2018-09-06T02:33:53.796Z,0.00
2018-09-06T02:34:53.822Z,0.00
2018-09-06T02:35:53.774Z,0.00
2018-09-06T02:36:53.765Z,0.00
2018-09-06T02:37:53.772Z,0.00
2018-09-06T02:38:53.742Z,0.00
2018-09-06T02:39:53.771Z,0.00
2018-09-06T02:40:53.724Z,0.00
2018-09-06T02:41:53.706Z,0.00
2018-09-06T02:42:53.706Z,0.00
2018-09-06T02:43:53.782Z,0.00
2018-09-06T02:44:53.779Z,0.00
2018-09-06T02:45:53.666Z,0.00
2018-09-06T02:46:53.650Z,0.00
2018-09-06T02:47:53.639Z,0.00
2018-09-06T02:48:53.633Z,0.00
2018-09-06T02:49:53.655Z,0.00
2018-09-06T02:50:53.608Z,0.00
2018-09-06T02:51:53.601Z,0.00
2018-09-06T02:52:53.588Z,0.00
2018-09-06T02:53:53.628Z,0.00
2018-09-06T02:54:53.593Z,0.00
2018-09-06T02:55:53.554Z,0.00
2018-09-06T02:56:53.549Z,0.00
2018-09-06T02:57:53.563Z,0.00
2018-09-06T02:58:53.520Z,0.00
2018-09-06T02:59:53.513Z,0.00
2018-09-06T03:00:53.539Z,0.00
2018-09-06T03:01:53.486Z,0.00
2018-09-06T03:02:53.478Z,0.00
2018-09-06T03:03:53.472Z,0.00
2018-09-06T03:04:53.468Z,0.00
2018-09-06T03:05:53.486Z,0.00
2018-09-06T03:06:53.432Z,0.00
2018-09-06T03:07:53.425Z,0.00
2018-09-06T03:08:53.441Z,0.00
2018-09-06T03:09:53.398Z,0.00
2018-09-06T03:10:53.388Z,0.00
2018-09-06T03:11:53.379Z,0.00
2018-09-06T03:12:53.375Z,0.00
2018-09-06T03:13:53.411Z,0.00
2018-09-06T03:14:53.345Z,0.00
2018-09-06T03:15:53.362Z,0.00
2018-09-06T03:16:53.354Z,0.00
2018-09-06T03:17:53.305Z,0.00
2018-09-06T03:18:53.295Z,0.00
2018-09-06T03:19:53.288Z,0.00
2018-09-06T03:20:53.304Z,0.00
2018-09-06T03:21:53.298Z,0.00
2018-09-06T03:22:53.268Z,0.00
2018-09-06T03:23:53.288Z,0.00
2018-09-06T03:24:53.229Z,0.00
2018-09-06T03:25:53.249Z,0.00
2018-09-06T03:26:53.206Z,0.00
2018-09-06T03:27:53.199Z,0.00
2018-09-06T03:28:53.213Z,0.00
2018-09-06T03:29:53.173Z,0.00
2018-09-06T03:30:53.202Z,0.00
2018-09-06T03:31:53.153Z,0.00
2018-09-06T03:32:53.152Z,0.00
2018-09-06T03:33:53.159Z,0.00
2018-09-06T03:34:53.173Z,0.00
2018-09-06T03:35:53.111Z,0.00
2018-09-06T03:36:53.203Z,0.00
2018-09-06T03:37:53.127Z,0.00
2018-09-06T03:38:53.080Z,0.00
2018-09-06T03:39:53.097Z,0.00
2018-09-06T03:40:53.049Z,0.00
2018-09-06T03:41:53.143Z,0.00
2018-09-06T03:42:53.051Z,0.00
2018-09-06T03:43:53.018Z,0.00
2018-09-06T03:44:53.043Z,0.00
2018-09-06T03:45:52.997Z,0.00
2018-09-06T03:46:52.982Z,0.00
2018-09-06T03:47:52.976Z,0.00
2018-09-06T03:48:52.991Z,0.00
2018-09-06T03:49:52.982Z,0.00
2018-09-06T03:50:52.948Z,0.00
2018-09-06T03:51:52.931Z,0.00
2018-09-06T03:52:52.942Z,0.00
2018-09-06T03:53:52.925Z,0.00
2018-09-06T03:54:52.989Z,0.00
2018-09-06T03:55:52.917Z,0.00
2018-09-06T03:56:52.871Z,0.00
2018-09-06T03:57:52.862Z,0.00
2018-09-06T03:58:59.910Z,0.00
2018-09-06T03:59:52.843Z,0.00
2018-09-06T04:00:52.954Z,0.00
2018-09-06T04:01:52.814Z,0.00
2018-09-06T04:02:52.838Z,0.00
2018-09-06T04:03:52.822Z,0.00
2018-09-06T04:04:52.785Z,0.00
2018-09-06T04:05:52.772Z,0.00
2018-09-06T04:06:52.759Z,0.00
2018-09-06T04:07:52.788Z,0.00
2018-09-06T04:08:52.737Z,0.00
2018-09-06T04:09:52.754Z,0.00
2018-09-06T04:10:52.720Z,0.00
2018-09-06T04:11:52.710Z,0.00
2018-09-06T04:12:52.696Z,0.00
2018-09-06T04:13:52.713Z,0.00
2018-09-06T04:14:52.674Z,0.00
2018-09-06T04:15:52.656Z,0.00
2018-09-06T04:16:52.702Z,0.00
2018-09-06T04:17:52.633Z,0.00
2018-09-06T04:18:52.627Z,0.00
2018-09-06T04:19:52.667Z,0.00
2018-09-06T04:20:52.605Z,0.00
2018-09-06T04:21:52.626Z,0.00
2018-09-06T04:22:52.583Z,0.00
2018-09-06T04:23:52.570Z,0.00
2018-09-06T04:24:52.559Z,0.00
2018-09-06T04:25:52.551Z,0.00
2018-09-06T04:26:52.571Z,0.00
2018-09-06T04:27:52.533Z,0.00
2018-09-06T04:28:52.511Z,0.00
2018-09-06T04:29:52.529Z,0.00
2018-09-06T04:30:52.487Z,0.00
2018-09-06T04:31:52.480Z,0.00
2018-09-06T04:32:52.472Z,0.00
2018-09-06T04:33:52.508Z,0.00
2018-09-06T04:34:52.445Z,0.00
2018-09-06T04:35:52.509Z,0.00
2018-09-06T04:36:52.427Z,4.00
2018-09-06T04:37:52.413Z,4.00
2018-09-06T04:38:52.442Z,4.00
2018-09-06T04:39:52.394Z,4.00
2018-09-06T04:40:52.406Z,4.00
2018-09-06T04:41:52.363Z,4.00
2018-09-06T04:42:52.360Z,4.00
2018-09-06T04:43:52.417Z,0.00
2018-09-06T04:44:52.333Z,0.00
2018-09-06T04:45:52.345Z,4.00
2018-09-06T04:46:52.311Z,4.00
2018-09-06T04:47:52.301Z,4.00
2018-09-06T04:48:52.322Z,4.00
2018-09-06T04:49:52.277Z,8.00
2018-09-06T04:50:52.306Z,4.00
2018-09-06T04:51:52.279Z,4.00
2018-09-06T04:52:52.244Z,8.00
2018-09-06T04:53:52.240Z,8.00
2018-09-06T04:54:52.228Z,12.00
2018-09-06T04:55:52.247Z,12.00
2018-09-06T04:56:52.299Z,12.00
2018-09-06T04:57:52.192Z,16.00
2018-09-06T04:58:52.212Z,16.00
2018-09-06T04:59:52.239Z,20.00
2018-09-06T05:00:52.157Z,24.00
2018-09-06T05:01:52.146Z,24.00
2018-09-06T05:02:52.129Z,32.00
2018-09-06T05:03:52.120Z,32.00
2018-09-06T05:04:52.142Z,36.00
2018-09-06T05:05:52.127Z,40.00
2018-09-06T05:06:52.091Z,40.00
2018-09-06T05:07:52.080Z,44.00
2018-09-06T05:08:52.065Z,48.00
2018-09-06T05:09:52.083Z,56.00
2018-09-06T05:10:52.063Z,60.00
2018-09-06T05:11:52.059Z,64.00
2018-09-06T05:12:52.096Z,64.00
2018-09-06T05:13:52.007Z,68.00
2018-09-06T05:14:52.001Z,76.00
2018-09-06T05:15:52.025Z,76.00
2018-09-06T05:16:52.018Z,80.00
2018-09-06T05:17:51.967Z,80.00
2018-09-06T05:18:51.982Z,84.00
2018-09-06T05:19:51.943Z,88.00
2018-09-06T05:20:51.932Z,92.00
2018-09-06T05:21:52.025Z,100.00
2018-09-06T05:22:51.945Z,104.00
2018-09-06T05:23:51.900Z,112.00
2018-09-06T05:24:51.896Z,120.00
2018-09-06T05:25:51.881Z,132.00
2018-09-06T05:26:51.868Z,144.00
2018-09-06T05:27:51.884Z,164.00
2018-09-06T05:28:51.846Z,184.00
2018-09-06T05:29:51.830Z,208.00
2018-09-06T05:30:51.912Z,224.00
2018-09-06T05:31:51.809Z,236.00
2018-09-06T05:32:51.827Z,240.00
2018-09-06T05:33:51.786Z,236.00
2018-09-06T05:34:51.777Z,240.00
2018-09-06T05:35:51.808Z,240.00
2018-09-06T05:36:51.797Z,240.00
2018-09-06T05:37:51.741Z,244.00
2018-09-06T05:38:51.771Z,248.00
2018-09-06T05:39:51.799Z,256.00
2018-09-06T05:40:51.714Z,260.00
2018-09-06T05:41:51.699Z,260.00
2018-09-06T05:42:51.684Z,264.00
2018-09-06T05:43:51.712Z,264.00
2018-09-06T05:44:51.663Z,260.00
2018-09-06T05:45:51.666Z,260.00
2018-09-06T05:46:51.664Z,256.00
2018-09-06T05:47:51.632Z,248.00
2018-09-06T05:48:51.654Z,236.00
2018-09-06T05:49:51.607Z,224.00
2018-09-06T05:50:51.598Z,224.00
2018-09-06T05:51:51.598Z,220.00
2018-09-06T05:52:51.575Z,216.00
2018-09-06T05:53:51.606Z,216.00
2018-09-06T05:54:51.555Z,220.00
2018-09-06T05:55:51.579Z,228.00
2018-09-06T05:56:51.531Z,244.00
2018-09-06T05:57:51.522Z,264.00
2018-09-06T05:58:51.554Z,292.00
2018-09-06T05:59:51.527Z,320.00
2018-09-06T06:00:51.502Z,340.00
2018-09-06T06:01:51.498Z,352.00
2018-09-06T06:02:51.459Z,364.00
2018-09-06T06:03:51.459Z,368.00
2018-09-06T06:04:51.436Z,372.00
2018-09-06T06:05:51.455Z,376.00
2018-09-06T06:06:51.413Z,392.00
2018-09-06T06:07:51.407Z,408.00
2018-09-06T06:08:51.399Z,428.00
2018-09-06T06:09:51.430Z,452.00
2018-09-06T06:10:51.373Z,488.00
2018-09-06T06:11:51.540Z,516.00
2018-09-06T06:12:51.349Z,556.00
2018-09-06T06:13:51.373Z,588.00
2018-09-06T06:14:51.370Z,628.00
2018-09-06T06:15:51.321Z,668.00
2018-09-06T06:16:51.335Z,712.00
2018-09-06T06:17:51.294Z,756.00
2018-09-06T06:18:51.284Z,788.00
2018-09-06T06:19:51.307Z,824.00
2018-09-06T06:20:51.324Z,868.00
2018-09-06T06:21:51.249Z,908.00
2018-09-06T06:22:51.237Z,944.00
2018-09-06T06:23:51.224Z,968.00
2018-09-06T06:24:51.212Z,984.00
2018-09-06T06:25:51.250Z,984.00
2018-09-06T06:26:51.200Z,968.00
2018-09-06T06:27:51.179Z,948.00
2018-09-06T06:28:51.170Z,920.00
2018-09-06T06:29:51.157Z,884.00
2018-09-06T06:30:51.173Z,860.00
2018-09-06T06:31:51.215Z,828.00
2018-09-06T06:32:51.168Z,796.00
2018-09-06T06:33:51.147Z,760.00
2018-09-06T06:34:51.100Z,728.00
2018-09-06T06:35:51.163Z,704.00
2018-09-06T06:36:51.082Z,696.00
2018-09-06T06:37:51.098Z,696.00
2018-09-06T06:38:51.057Z,696.00
2018-09-06T06:39:51.053Z,700.00
2018-09-06T06:40:51.068Z,700.00
2018-09-06T06:41:51.026Z,692.00
2018-09-06T06:42:51.012Z,684.00
2018-09-06T06:43:51.002Z,668.00
2018-09-06T06:44:50.993Z,664.00
2018-09-06T06:45:51.011Z,676.00
2018-09-06T06:46:50.966Z,708.00
2018-09-06T06:47:50.957Z,752.00
2018-09-06T06:48:50.947Z,800.00
2018-09-06T06:49:50.963Z,844.00
2018-09-06T06:50:50.921Z,884.00
2018-09-06T06:51:50.912Z,912.00
2018-09-06T06:52:50.908Z,932.00
2018-09-06T06:53:50.891Z,936.00
2018-09-06T06:54:50.939Z,912.00
2018-09-06T06:55:50.869Z,884.00
2018-09-06T06:56:50.851Z,864.00
2018-09-06T06:57:50.846Z,856.00
2018-09-06T06:58:50.840Z,856.00
2018-09-06T06:59:50.859Z,868.00
2018-09-06T07:00:50.814Z,900.00
2018-09-06T07:01:50.799Z,928.00
2018-09-06T07:02:50.792Z,952.00
2018-09-06T07:03:50.780Z,972.00
2018-09-06T07:04:50.797Z,976.00
2018-09-06T07:05:50.756Z,988.00
2018-09-06T07:06:50.831Z,1000.00
2018-09-06T07:07:50.731Z,1008.00
2018-09-06T07:08:50.751Z,996.00
2018-09-06T07:09:50.712Z,960.00
2018-09-06T07:10:50.734Z,920.00
2018-09-06T07:11:50.687Z,876.00
2018-09-06T07:12:50.676Z,856.00
2018-09-06T07:13:50.709Z,880.00
2018-09-06T07:14:50.653Z,940.00
2018-09-06T07:15:50.652Z,1016.00
2018-09-06T07:16:50.629Z,1080.00
2018-09-06T07:17:50.626Z,1104.00
2018-09-06T07:18:50.647Z,1112.00
2018-09-06T07:19:50.602Z,1096.00
2018-09-06T07:20:50.618Z,1084.00
2018-09-06T07:21:50.602Z,1076.00
2018-09-06T07:22:50.565Z,1060.00
2018-09-06T07:23:50.555Z,1044.00
2018-09-06T07:24:50.543Z,1040.00
2018-09-06T07:25:50.533Z,1056.00
2018-09-06T07:26:50.550Z,1084.00
2018-09-06T07:27:50.510Z,1124.00
2018-09-06T07:28:50.497Z,1172.00
2018-09-06T07:29:50.519Z,1232.00
2018-09-06T07:30:50.486Z,1296.00
2018-09-06T07:31:50.465Z,1348.00
2018-09-06T07:32:50.459Z,1372.00
2018-09-06T07:33:50.473Z,1372.00
2018-09-06T07:34:50.444Z,1352.00
2018-09-06T07:35:50.453Z,1312.00
2018-09-06T07:36:50.416Z,1280.00
2018-09-06T07:37:50.434Z,1280.00
2018-09-06T07:38:50.397Z,1300.00
2018-09-06T07:39:50.381Z,1344.00
2018-09-06T07:40:50.366Z,1412.00
2018-09-06T07:41:50.392Z,1484.00
2018-09-06T07:42:50.346Z,1536.00
2018-09-06T07:43:50.360Z,1544.00
2018-09-06T07:44:50.325Z,1536.00
2018-09-06T07:45:50.307Z,1504.00
2018-09-06T07:46:50.351Z,1448.00
2018-09-06T07:47:50.293Z,1388.00
2018-09-06T07:48:50.322Z,1312.00
2018-09-06T07:49:50.263Z,1248.00
2018-09-06T07:50:51.036Z,1200.00
2018-09-06T07:51:50.240Z,1160.00
2018-09-06T07:52:50.232Z,1124.00
2018-09-06T07:53:50.248Z,1100.00
2018-09-06T07:54:50.209Z,1080.00
2018-09-06T07:55:50.202Z,1068.00
2018-09-06T07:56:50.226Z,1076.00
2018-09-06T07:57:50.233Z,1096.00
2018-09-06T07:58:50.205Z,1136.00
2018-09-06T07:59:50.180Z,1196.00
2018-09-06T08:00:50.182Z,1264.00
2018-09-06T08:01:50.144Z,1324.00
2018-09-06T08:02:50.130Z,1372.00
2018-09-06T08:03:50.109Z,1400.00
2018-09-06T08:04:50.100Z,1408.00
2018-09-06T08:05:50.118Z,1420.00
2018-09-06T08:06:50.074Z,1444.00
2018-09-06T08:07:50.066Z,1476.00
2018-09-06T08:08:50.049Z,1508.00
2018-09-06T08:09:50.042Z,1548.00
2018-09-06T08:10:50.064Z,1588.00
2018-09-06T08:11:50.016Z,1620.00
2018-09-06T08:12:50.008Z,1652.00
2018-09-06T08:13:49.998Z,1688.00
2018-09-06T08:14:49.987Z,1724.00
2018-09-06T08:15:50.000Z,1756.00
2018-09-06T08:16:49.961Z,1792.00
2018-09-06T08:17:49.951Z,1812.00
2018-09-06T08:18:50.015Z,1800.00
2018-09-06T08:19:49.933Z,1780.00
2018-09-06T08:20:49.952Z,1772.00
2018-09-06T08:21:49.911Z,1772.00
2018-09-06T08:22:49.925Z,1764.00
2018-09-06T08:23:49.888Z,1760.00
2018-09-06T08:24:49.873Z,1760.00
2018-09-06T08:25:49.892Z,1816.00
2018-09-06T08:26:49.851Z,1916.00
2018-09-06T08:27:49.836Z,1964.00
2018-09-06T08:28:49.829Z,2008.00
2018-09-06T08:29:49.824Z,2072.00
2018-09-06T08:30:49.962Z,2136.00
2018-09-06T08:31:49.793Z,2156.00
2018-09-06T08:32:49.813Z,2220.00
2018-09-06T08:33:49.767Z,2248.00
2018-09-06T08:34:49.763Z,2248.00
2018-09-06T08:35:49.753Z,2236.00
2018-09-06T08:36:49.796Z,2224.00
2018-09-06T08:37:49.779Z,2180.00
2018-09-06T08:38:49.717Z,2128.00
2018-09-06T08:39:49.704Z,2072.00
2018-09-06T08:40:49.692Z,2020.00
2018-09-06T08:41:49.689Z,1972.00
2018-09-06T08:42:49.698Z,1948.00
2018-09-06T08:43:49.657Z,1924.00
2018-09-06T08:44:49.675Z,1904.00
2018-09-06T08:45:49.641Z,1872.00
2018-09-06T08:46:49.665Z,1824.00
2018-09-06T08:47:49.619Z,1764.00
2018-09-06T08:48:49.607Z,1712.00
2018-09-06T08:49:49.598Z,1680.00
2018-09-06T08:50:49.616Z,1652.00
2018-09-06T08:51:49.642Z,1636.00
2018-09-06T08:52:49.557Z,1616.00
2018-09-06T08:53:49.551Z,1608.00
2018-09-06T08:54:49.539Z,1604.00
2018-09-06T08:55:49.559Z,1608.00
2018-09-06T08:56:49.509Z,1608.00
2018-09-06T08:57:49.511Z,1612.00
2018-09-06T08:58:49.496Z,1624.00
2018-09-06T08:59:49.483Z,1636.00
2018-09-06T09:00:49.508Z,1652.00
2018-09-06T09:01:49.456Z,1672.00
2018-09-06T09:02:49.667Z,1700.00
2018-09-06T09:03:49.439Z,1732.00
2018-09-06T09:04:49.433Z,1772.00
2018-09-06T09:05:49.468Z,1832.00
2018-09-06T09:06:49.407Z,1904.00
2018-09-06T09:07:49.390Z,1984.00
2018-09-06T09:08:49.402Z,2052.00
2018-09-06T09:09:49.404Z,2112.00
2018-09-06T09:10:49.404Z,2144.00
2018-09-06T09:11:49.347Z,2148.00
2018-09-06T09:12:49.391Z,2124.00
2018-09-06T09:13:49.326Z,2092.00
2018-09-06T09:14:49.317Z,2044.00
2018-09-06T09:15:49.354Z,1984.00
2018-09-06T09:16:49.288Z,1916.00
2018-09-06T09:17:49.281Z,1844.00
2018-09-06T09:18:49.280Z,1828.00
2018-09-06T09:19:49.281Z,1916.00
2018-09-06T09:20:49.288Z,2072.00
2018-09-06T09:21:49.269Z,2240.00
2018-09-06T09:22:49.221Z,2348.00
2018-09-06T09:23:49.223Z,2360.00
2018-09-06T09:24:49.238Z,2316.00
2018-09-06T09:25:49.231Z,2256.00
2018-09-06T09:26:49.216Z,2176.00
2018-09-06T09:27:49.205Z,2076.00
2018-09-06T09:28:49.165Z,1936.00
2018-09-06T09:29:49.144Z,1784.00
2018-09-06T09:30:49.161Z,1680.00
2018-09-06T09:31:49.125Z,1608.00
2018-09-06T09:32:49.113Z,1584.00
2018-09-06T09:33:49.137Z,1592.00
2018-09-06T09:34:49.090Z,1632.00
2018-09-06T09:35:49.163Z,1660.00
2018-09-06T09:36:49.073Z,1688.00
2018-09-06T09:37:49.094Z,1732.00
2018-09-06T09:38:49.047Z,1768.00
2018-09-06T09:39:49.036Z,1796.00
2018-09-06T09:40:49.027Z,1792.00
2018-09-06T09:41:49.052Z,1800.00
2018-09-06T09:42:49.002Z,1868.00
2018-09-06T09:43:48.991Z,1924.00
2018-09-06T09:44:48.978Z,1956.00
2018-09-06T09:45:49.001Z,1964.00
2018-09-06T09:47:48.512Z,2040.00
2018-09-06T09:48:48.532Z,2084.00
2018-09-06T09:49:48.491Z,2136.00
2018-09-06T09:50:48.484Z,2160.00
2018-09-06T09:51:48.469Z,2124.00
2018-09-06T09:52:48.453Z,2024.00
2018-09-06T09:53:48.476Z,1896.00
2018-09-06T09:54:48.431Z,1796.00
2018-09-06T09:55:48.424Z,1748.00
2018-09-06T09:56:48.414Z,1708.00
2018-09-06T09:57:48.435Z,1668.00
2018-09-06T09:58:48.425Z,1648.00
2018-09-06T09:59:48.391Z,1632.00
2018-09-06T10:00:48.369Z,1628.00
2018-09-06T10:01:48.367Z,1668.00
2018-09-06T10:02:48.352Z,1744.00
2018-09-06T10:03:48.411Z,1844.00
2018-09-06T10:04:48.330Z,1980.00
2018-09-06T10:05:48.312Z,2220.00
2018-09-06T10:06:48.303Z,2532.00
2018-09-06T10:07:48.333Z,2792.00
2018-09-06T10:08:48.312Z,2892.00
2018-09-06T10:09:48.266Z,2868.00
2018-09-06T10:10:48.260Z,2772.00
2018-09-06T10:11:48.255Z,2604.00
2018-09-06T10:12:48.241Z,2364.00
2018-09-06T10:13:48.256Z,2144.00
2018-09-06T10:14:48.209Z,2004.00
2018-09-06T10:15:48.743Z,1916.00
2018-09-06T10:16:48.192Z,1864.00
2018-09-06T10:17:48.215Z,1776.00
2018-09-06T10:18:48.166Z,1484.00
2018-09-06T10:19:48.154Z,1568.00
2018-09-06T10:20:48.138Z,1636.00
2018-09-06T10:21:48.126Z,1608.00
2018-09-06T10:22:48.158Z,1588.00
2018-09-06T10:23:48.118Z,1816.00
2018-09-06T10:24:48.095Z,2236.00
2018-09-06T10:25:48.136Z,2584.00
2018-09-06T10:26:48.069Z,2800.00
2018-09-06T10:27:48.060Z,2796.00
2018-09-06T10:28:48.084Z,2168.00
2018-09-06T10:29:48.043Z,2092.00
2018-09-06T10:30:48.042Z,1636.00
2018-09-06T10:31:48.030Z,1896.00
2018-09-06T10:32:48.008Z,2548.00
2018-09-06T10:33:48.027Z,2884.00
2018-09-06T10:34:48.013Z,2980.00
2018-09-06T10:35:47.985Z,3044.00
2018-09-06T10:36:47.960Z,2608.00
2018-09-06T10:37:47.954Z,1704.00
2018-09-06T10:38:47.953Z,1296.00
2018-09-06T10:39:48.031Z,872.00
2018-09-06T10:40:47.924Z,940.00
2018-09-06T10:41:47.907Z,972.00
2018-09-06T10:42:47.892Z,1112.00
2018-09-06T10:43:47.884Z,1244.00
2018-09-06T10:44:47.894Z,1368.00
2018-09-06T10:45:47.889Z,1492.00
2018-09-06T10:46:47.854Z,1544.00
2018-09-06T10:47:47.878Z,1668.00
2018-09-06T10:48:47.829Z,1828.00
2018-09-06T10:49:47.822Z,2028.00
2018-09-06T10:50:47.855Z,2192.00
2018-09-06T10:51:47.791Z,2256.00
2018-09-06T10:52:47.786Z,2320.00
2018-09-06T10:53:47.784Z,2176.00
2018-09-06T10:54:47.756Z,1912.00
2018-09-06T10:55:47.895Z,1628.00
2018-09-06T10:56:47.740Z,1460.00
2018-09-06T10:57:48.291Z,1480.00
2018-09-06T10:58:47.739Z,1808.00
2018-09-06T10:59:47.701Z,2176.00
2018-09-06T11:00:47.809Z,2480.00
2018-09-06T11:01:47.677Z,2612.00
2018-09-06T11:02:47.664Z,2568.00
2018-09-06T11:03:47.653Z,2396.00
2018-09-06T11:04:47.672Z,2308.00
2018-09-06T11:05:47.664Z,2320.00
2018-09-06T11:06:47.616Z,2412.00
2018-09-06T11:07:47.703Z,2484.00
2018-09-06T11:08:47.602Z,2540.00
2018-09-06T11:09:47.584Z,2496.00
2018-09-06T11:10:47.615Z,2472.00
2018-09-06T11:11:47.636Z,2432.00
2018-09-06T11:12:47.580Z,2388.00
2018-09-06T11:13:47.540Z,2288.00
2018-09-06T11:14:47.534Z,2080.00
2018-09-06T11:15:47.521Z,1948.00
2018-09-06T11:16:47.547Z,1928.00
2018-09-06T11:17:47.506Z,1896.00
2018-09-06T11:18:47.482Z,1928.00
2018-09-06T11:19:47.569Z,2152.00
2018-09-06T11:20:47.496Z,2176.00
2018-09-06T11:21:47.555Z,2048.00
2018-09-06T11:22:47.500Z,1800.00
2018-09-06T11:23:47.424Z,1580.00
2018-09-06T11:24:47.415Z,1520.00
2018-09-06T11:25:47.436Z,1744.00
2018-09-06T11:26:47.391Z,2048.00
2018-09-06T11:27:47.396Z,2380.00
2018-09-06T11:28:47.382Z,2848.00
2018-09-06T11:29:47.372Z,3040.00
2018-09-06T11:30:47.387Z,2888.00
2018-09-06T11:31:47.335Z,2924.00
2018-09-06T11:32:47.382Z,3136.00
2018-09-06T11:33:47.323Z,3228.00
2018-09-06T11:34:47.307Z,3524.00
2018-09-06T11:35:47.294Z,3892.00
2018-09-06T11:36:47.284Z,4164.00
2018-09-06T11:37:47.290Z,4224.00
2018-09-06T11:38:47.265Z,3896.00
2018-09-06T11:39:47.245Z,3256.00
2018-09-06T11:40:47.243Z,2776.00
2018-09-06T11:41:47.262Z,3784.00
2018-09-06T11:42:47.214Z,4652.00
2018-09-06T11:43:47.206Z,4652.00
2018-09-06T11:44:47.193Z,4020.00
2018-09-06T11:45:47.184Z,3728.00
2018-09-06T11:46:47.318Z,3624.00
2018-09-06T11:47:47.260Z,3692.00
2018-09-06T11:48:47.175Z,4520.00
2018-09-06T11:49:47.138Z,4492.00
2018-09-06T11:50:47.119Z,3728.00
2018-09-06T11:51:47.112Z,2788.00
2018-09-06T11:52:47.134Z,2412.00
2018-09-06T11:53:47.107Z,2680.00
2018-09-06T11:54:47.109Z,2848.00
2018-09-06T11:55:47.104Z,2892.00
2018-09-06T11:56:47.055Z,2980.00
2018-09-06T11:57:47.050Z,3032.00
2018-09-06T11:58:47.039Z,2932.00
2018-09-06T11:59:47.082Z,2912.00
2018-09-06T12:00:47.013Z,2996.00
2018-09-06T12:01:46.998Z,3216.00
2018-09-06T12:02:46.990Z,3456.00
2018-09-06T12:03:46.982Z,3688.00
2018-09-06T12:04:47.012Z,3704.00
2018-09-06T12:05:46.997Z,3456.00
2018-09-06T12:06:46.949Z,3004.00
2018-09-06T12:07:46.932Z,2732.00
2018-09-06T12:08:46.932Z,2600.00
2018-09-06T12:09:46.917Z,2660.00
2018-09-06T12:10:46.949Z,2692.00
2018-09-06T12:11:46.917Z,2716.00
2018-09-06T12:12:46.888Z,3004.00
2018-09-06T12:13:46.932Z,3252.00
2018-09-06T12:14:46.862Z,3396.00
2018-09-06T12:15:46.845Z,3332.00
2018-09-06T12:16:46.880Z,2932.00
2018-09-06T12:17:46.827Z,2908.00
2018-09-06T12:18:46.841Z,3524.00
2018-09-06T12:19:46.800Z,4076.00
2018-09-06T12:20:46.788Z,4556.00
2018-09-06T12:21:46.810Z,5132.00
2018-09-06T12:22:46.767Z,5888.00
2018-09-06T12:23:46.767Z,5560.00
2018-09-06T12:24:46.740Z,4756.00
2018-09-06T12:25:46.837Z,4040.00
2018-09-06T12:26:46.725Z,3744.00
2018-09-06T12:27:46.712Z,3784.00
2018-09-06T12:28:46.730Z,3724.00
2018-09-06T12:29:46.695Z,3692.00
2018-09-06T12:30:46.680Z,3776.00
2018-09-06T12:31:46.802Z,3656.00
2018-09-06T12:32:46.654Z,3584.00
2018-09-06T12:33:46.652Z,3588.00
2018-09-06T12:34:46.691Z,3932.00
2018-09-06T12:35:46.633Z,4228.00
2018-09-06T12:36:46.663Z,4524.00
2018-09-06T12:37:46.605Z,4448.00
2018-09-06T12:38:46.744Z,4192.00